Flight Track Log - Related Links

Times and Time Zones

All times are in EDT time to prevent confusion due to time zone crossing. See the DAL891 flight status page for this flight to view local times or setup timezone preferences in your user account.

Time Position Orientation Groundspeed Altitude Reporting Facility
EDT Latitude Longitude Course Direction KTS MPH feet Rate Location/Type
Wed 06:39:25 AM 25.7847 -80.3133 336° Northwest 158 182 1,000  Level Miami Center
Wed 06:40:34 AM 25.7850 -80.3894 270° West 172 198 2,800 2,372 Climbing Miami Center
Wed 06:41:34 AM 25.8086 -80.4456 295° West 275 316 6,100 2,100 Climbing Miami Center
Wed 06:42:00 AM 26.1072 -80.3840 339° North  Level FlightAware Approximate
Wed 06:42:34 AM 25.8861 -80.4456 360° North 282 325 7,000  Level Miami Center
Wed 06:43:00 AM 26.2141 -80.4167 North  Level FlightAware Approximate
Wed 06:43:34 AM 25.9656 -80.4364 North 292 336 7,700  Level Miami Center
Wed 06:44:00 AM 26.3169 -80.4668 336° Northwest  Level FlightAware Approximate
Wed 06:44:34 AM 26.0417 -80.3994 24° Northeast 342 394 10,700  Level Miami Center
Wed 06:45:34 AM 26.1311 -80.4111 353° North 311 358 12,000 1,600 Climbing Miami Center
Wed 06:46:34 AM 26.2283 -80.4489 341° North 336 387 13,900 2,600 Climbing Miami Center
Wed 06:47:34 AM 26.3442 -80.4942 341° North 357 411 17,200 2,500 Climbing Miami Center
Wed 06:48:34 AM 26.4497 -80.5344 341° North 393 452 18,900 1,900 Climbing Miami Center
Wed 06:49:34 AM 26.5678 -80.5775 342° North 427 491 21,000 1,900 Climbing Miami Center
Wed 06:50:34 AM 26.6794 -80.6206 341° North 427 491 22,700 1,550 Climbing Miami Center
Wed 06:51:34 AM 26.7869 -80.6614 341° North 437 503 24,100 1,850 Climbing Miami Center
Wed 06:52:34 AM 26.9047 -80.7047 342° North 437 503 26,400 2,000 Climbing Miami Center
Wed 06:53:34 AM 27.0225 -80.7506 341° North 437 503 28,100 1,600 Climbing Miami Center
Wed 06:54:34 AM 27.1383 -80.7919 342° North 437 503 29,600 1,350 Climbing Miami Center
Wed 06:55:34 AM 27.2542 -80.8356 341° North 437 503 30,800 1,300 Climbing Miami Center
Wed 06:56:34 AM 27.3800 -80.8867 340° North 437 503 32,200 1,200 Climbing Miami Center
Wed 06:57:34 AM 27.4958 -80.9258 343° North 432 497 33,200 900 Climbing Miami Center
Wed 06:58:34 AM 27.6072 -80.9719 340° North 432 497 34,000 800 Climbing Miami Center
Wed 06:59:34 AM 27.7253 -81.0042 346° North 427 491 34,800 500 Climbing Miami Center
Wed 07:00:34 AM 27.8478 -81.0275 350° North 436 502 35,000 100 Climbing Miami Center
Wed 07:01:34 AM 27.9683 -81.0483 351° North 436 502 35,000  Level Miami Center
Wed 07:02:34 AM 28.0886 -81.0717 350° North 436 502 35,000  Level Miami Center
Wed 07:03:34 AM 28.2108 -81.0975 349° North 441 507 35,000  Level Miami Center
Wed 07:04:34 AM 28.3167 -81.1178 350° North 435 501 35,000  Level Miami Center
Wed 07:06:26 AM 28.5431 -81.1603 351° North 460 529 35,000  Level Jacksonville Center
Wed 07:07:26 AM 28.6644 -81.1842 350° North 450 518 35,000  Level Jacksonville Center
Wed 07:08:26 AM 28.7839 -81.2106 349° North 445 512 35,000  Level Jacksonville Center
Wed 07:09:26 AM 28.9031 -81.2347 350° North 440 506 35,000  Level Jacksonville Center
Wed 07:10:26 AM 29.0350 -81.2633 349° North 432 497 35,000  Level Jacksonville Center
Wed 07:11:26 AM 29.1356 -81.3044 340° North 419 482 35,000  Level Jacksonville Center
Wed 07:12:26 AM 29.2553 -81.3597 338° Northwest 419 482 35,000  Level Jacksonville Center
Wed 07:13:26 AM 29.3642 -81.4008 342° North 413 475 35,000  Level Jacksonville Center
Wed 07:14:26 AM 29.4608 -81.4494 336° Northwest 413 475 35,000  Level Jacksonville Center
Wed 07:15:26 AM 29.5719 -81.4933 341° North 413 475 35,000  Level Jacksonville Center
Wed 07:16:26 AM 29.6789 -81.5394 339° North 413 475 35,000  Level Jacksonville Center
Wed 07:17:26 AM 29.7858 -81.5858 339° North 413 475 35,000  Level Jacksonville Center
Wed 07:18:26 AM 29.8928 -81.6325 339° North 413 475 35,000  Level Jacksonville Center
Wed 07:19:26 AM 29.9997 -81.6789 339° North 413 475 35,000  Level Jacksonville Center
Wed 07:20:26 AM 30.1067 -81.7256 339° North 413 475 35,000  Level Jacksonville Center
Wed 07:21:26 AM 30.2136 -81.7678 341° North 413 475 35,000  Level Jacksonville Center
Wed 07:22:26 AM 30.3206 -81.8169 338° Northwest 413 475 35,000  Level Jacksonville Center
Wed 07:23:26 AM 30.4400 -81.8686 340° North 413 475 35,000  Level Jacksonville Center
Wed 07:24:26 AM 30.5467 -81.9156 339° North 413 475 35,000  Level Jacksonville Center
Wed 07:25:26 AM 30.6556 -81.9678 338° Northwest 418 481 35,000  Level Jacksonville Center
Wed 07:26:26 AM 30.7606 -82.0150 339° North 413 475 35,000  Level Jacksonville Center
Wed 07:27:26 AM 30.8672 -82.0625 339° North 413 475 35,000  Level Jacksonville Center
Wed 07:28:26 AM 30.9739 -82.1100 339° North 413 475 35,000  Level Jacksonville Center
Wed 07:29:26 AM 31.0786 -82.1575 339° North 413 475 35,000  Level Jacksonville Center
Wed 07:30:26 AM 31.1875 -82.2053 339° North 413 475 35,000  Level Jacksonville Center
Wed 07:31:26 AM 31.2922 -82.2531 339° North 413 475 35,000  Level Jacksonville Center
Wed 07:33:09 AM 31.4761 -82.3344 339° North 418 481 35,000  Level Atlanta Center
Wed 07:34:09 AM 31.5811 -82.3836 338° Northwest 413 475 35,000  Level Atlanta Center
Wed 07:35:09 AM 31.6881 -82.4306 340° North 413 475 35,000  Level Atlanta Center
Wed 07:36:09 AM 31.7953 -82.4800 339° North 413 475 35,000  Level Atlanta Center
Wed 07:37:09 AM 31.9022 -82.5294 339° North 418 481 35,000  Level Atlanta Center
Wed 07:38:09 AM 32.0094 -82.5839 337° Northwest 418 481 35,000  Level Atlanta Center
Wed 07:39:09 AM 32.0981 -82.6658 322° Northwest 411 473 35,000 -650 Level Atlanta Center
Wed 07:40:09 AM 32.1844 -82.7553 319° Northwest 411 473 33,700 -1,450 Descending Atlanta Center
Wed 07:41:09 AM 32.2689 -82.8400 320° Northwest 406 467 32,100 -1,700 Descending Atlanta Center
Wed 07:42:09 AM 32.3553 -82.9300 319° Northwest 406 467 30,300 -1,900 Descending Atlanta Center
Wed 07:43:09 AM 32.4458 -83.0175 321° Northwest 412 474 28,300 -1,850 Descending Atlanta Center
Wed 07:44:09 AM 32.5300 -83.1050 319° Northwest 412 474 26,600 -1,750 Descending Atlanta Center
Wed 07:45:09 AM 32.6203 -83.1956 320° Northwest 412 474 24,800 -1,300 Descending Atlanta Center
Wed 07:46:09 AM 32.7022 -83.2761 320° Northwest 420 483 24,000 -450 Descending Atlanta Center
Wed 07:47:09 AM 32.7883 -83.3692 318° Northwest 420 483 23,900 -1,050 Descending Atlanta Center
Wed 07:48:09 AM 32.8722 -83.4503 321° Northwest 408 470 21,900 -2,300 Descending Atlanta Center
Wed 07:49:09 AM 32.9583 -83.5386 319° Northwest 393 452 19,300 -2,500 Descending Atlanta Center
Wed 07:50:09 AM 33.0253 -83.6128 317° Northwest 369 425 16,900 -2,400 Descending Atlanta Center
Wed 07:51:09 AM 33.1008 -83.6867 321° Northwest 355 409 14,500 -2,471 Descending Atlanta Center
Wed 07:51:34 AM 33.1333 -83.7333 310° West 342 394 13,400 -1,765 Descending Atlanta TRACON
Wed 07:52:34 AM 33.2000 -83.8000 320° Northwest 319 367 12,000 -992 Descending Atlanta TRACON
Wed 07:53:35 AM 33.2667 -83.8500 328° Northwest 277 319 11,400 -1,011 Descending Atlanta TRACON
Wed 07:54:09 AM 33.3036 -83.8822 324° Northwest 291 335 10,400 -1,787 Descending Atlanta Center
Wed 07:55:09 AM 33.3725 -83.9294 330° Northwest 282 325 8,600 -1,200 Descending Atlanta Center
Wed 07:56:09 AM 33.4394 -83.9717 332° Northwest 269 310 8,000 -650 Descending Atlanta Center
Wed 07:57:09 AM 33.5125 -83.9939 346° North 269 310 7,300 -1,000 Descending Atlanta Center
Wed 07:58:09 AM 33.5833 -84.0239 341° North 269 310 6,000 -800 Descending Atlanta Center
Wed 07:59:09 AM 33.6211 -84.0936 303° West 242 278 5,700 -850 Descending Atlanta Center
Wed 08:00:09 AM 33.6314 -84.1611 280° West 220 253 4,300 -1,186 Descending Atlanta Center
Wed 08:00:35 AM 33.6333 -84.1833 276° West 211 243 4,000 -692 Descending Atlanta TRACON

Login

Don't have an account? Register now (free) for customized features, flight alerts, and more!